Disclaimer

Please do not use the information listed here in-flight or in-navigation, as they are not provided to us by the airports but are provided by volunteers, so they might be outdated.

Search


Regions


Airport information page

Radio informations:
RDO - 122.25 MHz

Airport informations:
Latitude: 53° 06' 15.00" N
Longitude: 004° 20' 25.00" W
Elevation: 1 feet - 0 meters
Operating hours: Remarks
Operating agency: Civil government, landing fees and diplomatic clearance may be required
Timezone: UTC 0(+1DT) - Last Sunday in March to last Sunday in October
Fuel: Jet A1, without icing nhibitor.

100/130 MIL Spec, low lead, aviation gasoline (BLUE)

Runway information:
02/20 - 3534 x 75 feet< - >1077 x 23 meters
08/26 - 2887 x 75 feet< - >880 x 23 meters

Recent METARs:
EGCK 191950Z AUTO 04009KT 9999 OVC030/// 07/03 Q1021
EGCK 192020Z AUTO 04008KT 9999 OVC031/// 07/03 Q1021
EGCK 192050Z AUTO 04009KT 9999 OVC028/// 07/03 Q1021

Airport on the map: